createdAt,value
2023-03-15T00:00:35.639Z,1.63
2023-03-15T00:03:04.287Z,1.20
2023-03-15T00:05:31.954Z,1.07
2023-03-15T00:07:59.323Z,1.00
2023-03-15T00:10:26.051Z,1.10
2023-03-15T00:12:52.797Z,0.90
2023-03-15T00:15:19.537Z,0.90
2023-03-15T00:17:46.450Z,1.00
2023-03-15T00:20:14.955Z,1.00
2023-03-15T00:22:42.396Z,0.73
2023-03-15T00:25:09.671Z,0.90
2023-03-15T00:27:36.419Z,0.80
2023-03-15T00:30:04.018Z,1.03
2023-03-15T00:32:32.336Z,0.80
2023-03-15T00:34:59.102Z,0.90
2023-03-15T00:37:25.809Z,1.27
2023-03-15T00:39:55.588Z,0.93
2023-03-15T00:42:27.353Z,1.37
2023-03-15T00:44:55.704Z,1.30
2023-03-15T00:47:23.179Z,0.70
2023-03-15T00:49:50.779Z,0.90
2023-03-15T00:52:19.058Z,0.83
2023-03-15T00:54:53.088Z,1.20
2023-03-15T00:57:20.353Z,1.00
2023-03-15T00:59:47.146Z,1.10
2023-03-15T01:02:14.421Z,0.87
2023-03-15T01:04:41.137Z,1.07
2023-03-15T01:07:08.038Z,1.00
2023-03-15T01:09:35.208Z,0.90
2023-03-15T01:12:01.987Z,1.00
2023-03-15T01:14:31.369Z,0.90
2023-03-15T01:16:58.526Z,1.10
2023-03-15T01:19:25.246Z,1.00
2023-03-15T01:21:53.240Z,1.30
2023-03-15T01:24:20.224Z,1.00
2023-03-15T01:26:48.774Z,1.30
2023-03-15T01:29:17.827Z,1.10
2023-03-15T01:31:44.648Z,1.13
2023-03-15T01:34:11.459Z,1.10
2023-03-15T01:36:38.268Z,1.20
2023-03-15T01:39:05.151Z,1.17
2023-03-15T01:41:43.939Z,1.50
2023-03-15T01:44:15.893Z,1.40
2023-03-15T01:46:43.998Z,1.47
2023-03-15T01:49:27.233Z,1.33
2023-03-15T01:52:06.693Z,1.50
2023-03-15T01:54:54.587Z,1.30
2023-03-15T01:57:41.761Z,1.63
2023-03-15T02:00:16.468Z,1.30
2023-03-15T02:02:58.110Z,1.40
2023-03-15T02:05:33.938Z,1.30
2023-03-15T02:08:06.852Z,1.53
2023-03-15T02:10:40.595Z,1.60
2023-03-15T02:13:08.333Z,1.80
2023-03-15T02:15:35.153Z,1.80
2023-03-15T02:18:05.216Z,1.97
2023-03-15T02:20:42.577Z,1.60
2023-03-15T02:23:16.978Z,1.67
2023-03-15T02:26:07.836Z,1.77
2023-03-15T02:28:35.341Z,2.10
2023-03-15T02:31:02.355Z,1.87
2023-03-15T02:33:38.770Z,1.97
2023-03-15T02:36:29.751Z,2.33
2023-03-15T02:38:57.009Z,2.03
2023-03-15T02:41:53.648Z,1.80
2023-03-15T02:44:31.997Z,2.40
2023-03-15T02:47:04.734Z,2.60
2023-03-15T02:49:37.440Z,2.80
2023-03-15T02:52:05.302Z,2.37
2023-03-15T02:54:36.014Z,2.30
2023-03-15T02:57:03.563Z,2.40
2023-03-15T02:59:31.312Z,2.67
2023-03-15T03:01:58.177Z,2.50
2023-03-15T03:04:24.888Z,2.40
2023-03-15T03:06:51.606Z,2.37
2023-03-15T03:09:23.809Z,2.80
2023-03-15T03:11:50.914Z,2.87
2023-03-15T03:14:18.207Z,2.80
2023-03-15T03:16:45.318Z,3.03
2023-03-15T03:19:12.625Z,3.10
2023-03-15T03:21:43.314Z,3.27
2023-03-15T03:24:16.029Z,3.60
2023-03-15T03:26:46.240Z,3.47
2023-03-15T03:29:17.747Z,3.60
2023-03-15T03:31:47.342Z,3.60
2023-03-15T03:34:15.660Z,3.80
2023-03-15T03:36:45.811Z,3.80
2023-03-15T03:39:17.132Z,3.73
2023-03-15T03:41:45.346Z,3.87
2023-03-15T03:44:13.008Z,3.90
2023-03-15T03:46:41.389Z,4.57
2023-03-15T03:49:08.154Z,4.27
2023-03-15T03:51:35.183Z,4.37
2023-03-15T03:54:02.617Z,4.80
2023-03-15T03:56:29.828Z,4.50
2023-03-15T03:58:56.746Z,4.90
2023-03-15T04:01:30.782Z,4.97
2023-03-15T04:03:57.862Z,5.17
2023-03-15T04:06:24.937Z,5.27
2023-03-15T04:08:52.702Z,5.40
2023-03-15T04:11:26.855Z,5.77
2023-03-15T04:13:58.527Z,5.50
2023-03-15T04:16:26.181Z,5.20
2023-03-15T04:19:13.033Z,5.97
2023-03-15T04:21:47.438Z,5.50
2023-03-15T04:24:35.159Z,6.10
2023-03-15T04:27:08.463Z,6.20
2023-03-15T04:29:44.850Z,6.43
2023-03-15T04:32:36.273Z,8.43
2023-03-15T04:35:22.612Z,15.47
2023-03-15T04:38:26.545Z,17.40
2023-03-15T04:41:10.756Z,15.27
2023-03-15T04:44:06.686Z,17.97
2023-03-15T04:46:47.524Z,19.37
2023-03-15T04:49:43.519Z,15.40
2023-03-15T04:52:30.039Z,20.37
2023-03-15T04:54:59.788Z,14.23
2023-03-15T04:57:48.793Z,12.77
2023-03-15T05:00:32.569Z,9.93
2023-03-15T05:03:08.794Z,9.10
2023-03-15T05:05:52.529Z,8.07
2023-03-15T05:08:31.910Z,7.77
2023-03-15T05:11:17.446Z,9.07
2023-03-15T05:14:01.683Z,8.70
2023-03-15T05:16:43.175Z,8.47
2023-03-15T05:19:21.758Z,8.57
2023-03-15T05:22:07.233Z,8.80
2023-03-15T05:24:48.297Z,8.37
2023-03-15T05:27:34.474Z,7.87
2023-03-15T05:30:16.318Z,7.63
2023-03-15T05:33:05.133Z,7.73
2023-03-15T05:35:47.802Z,6.77
2023-03-15T05:38:37.371Z,7.03
2023-03-15T05:41:24.163Z,6.70
2023-03-15T05:44:10.661Z,6.77
2023-03-15T05:46:55.571Z,7.50
2023-03-15T05:49:40.946Z,7.57
2023-03-15T05:52:31.357Z,7.20
2023-03-15T05:55:16.954Z,7.47
2023-03-15T05:58:02.495Z,8.93
2023-03-15T06:00:43.660Z,6.37
2023-03-15T06:03:22.682Z,5.47
2023-03-15T06:05:59.227Z,5.90
2023-03-15T06:08:34.540Z,5.63
2023-03-15T06:11:01.419Z,6.13
2023-03-15T06:13:28.413Z,6.30
2023-03-15T06:15:55.251Z,8.17
2023-03-15T06:18:22.829Z,7.13
2023-03-15T06:20:50.853Z,6.47
2023-03-15T06:23:19.181Z,6.27
2023-03-15T06:25:47.262Z,5.77
2023-03-15T06:28:15.036Z,5.97
2023-03-15T06:30:51.196Z,5.93
2023-03-15T06:33:21.550Z,5.80
2023-03-15T06:35:48.446Z,5.10
2023-03-15T06:38:15.309Z,4.67
2023-03-15T06:40:42.296Z,5.20
2023-03-15T06:43:09.060Z,4.90
2023-03-15T06:45:36.298Z,4.60
2023-03-15T06:48:04.514Z,5.20
2023-03-15T06:50:44.143Z,6.67
2023-03-15T06:53:13.271Z,7.27
2023-03-15T06:55:40.094Z,6.13
2023-03-15T06:58:06.849Z,5.17
2023-03-15T07:00:33.581Z,6.03
2023-03-15T07:03:00.581Z,5.27
2023-03-15T07:05:27.572Z,5.07
2023-03-15T07:07:54.368Z,5.07
2023-03-15T07:10:21.466Z,4.50
2023-03-15T07:12:48.215Z,4.07
2023-03-15T07:15:17.061Z,5.10
2023-03-15T07:17:44.092Z,5.40
2023-03-15T07:20:11.554Z,5.17
2023-03-15T07:22:38.674Z,5.00
2023-03-15T07:25:07.420Z,4.90
2023-03-15T07:27:34.282Z,4.80
2023-03-15T07:30:01.236Z,4.23
2023-03-15T07:32:28.207Z,3.90
2023-03-15T07:34:58.283Z,3.90
2023-03-15T07:37:25.094Z,4.00
2023-03-15T07:39:51.841Z,4.07
2023-03-15T07:42:18.711Z,3.30
2023-03-15T07:44:50.676Z,3.20
2023-03-15T07:47:17.495Z,4.30
2023-03-15T07:49:44.316Z,3.80
2023-03-15T07:52:11.304Z,3.57
2023-03-15T07:54:38.037Z,3.43
2023-03-15T07:57:05.124Z,3.13
2023-03-15T07:59:31.865Z,3.43
2023-03-15T08:02:00.831Z,3.20
2023-03-15T08:04:29.045Z,3.13
2023-03-15T08:06:56.240Z,3.60
2023-03-15T08:09:23.316Z,3.60
2023-03-15T08:11:50.100Z,3.60
2023-03-15T08:14:16.874Z,3.47
2023-03-15T08:16:43.658Z,3.40
2023-03-15T08:19:10.460Z,3.30
2023-03-15T08:21:37.446Z,3.00
2023-03-15T08:24:04.365Z,3.27
2023-03-15T08:26:31.087Z,3.47
2023-03-15T08:28:57.846Z,3.50
2023-03-15T08:31:24.711Z,3.27
2023-03-15T08:33:51.416Z,3.17
2023-03-15T08:36:18.266Z,3.53
2023-03-15T08:38:45.035Z,3.77
2023-03-15T08:41:11.810Z,3.00
2023-03-15T08:43:38.577Z,3.07
2023-03-15T08:46:05.635Z,2.90
2023-03-15T08:48:32.544Z,3.17
2023-03-15T08:51:04.251Z,2.93
2023-03-15T08:53:31.526Z,2.73
2023-03-15T08:55:58.859Z,3.10
2023-03-15T08:58:25.595Z,2.87
2023-03-15T09:00:52.519Z,2.83
2023-03-15T09:03:20.598Z,3.07
2023-03-15T09:05:47.633Z,2.87
2023-03-15T09:08:14.582Z,2.97
2023-03-15T09:10:41.297Z,2.60
2023-03-15T09:13:08.010Z,2.27
2023-03-15T09:15:34.979Z,2.40
2023-03-15T09:18:01.734Z,2.60
2023-03-15T09:20:28.597Z,2.87
2023-03-15T09:22:57.721Z,3.03
2023-03-15T09:25:25.850Z,2.80
2023-03-15T09:27:53.345Z,2.83
2023-03-15T09:30:20.366Z,2.87
2023-03-15T09:32:51.363Z,2.70
2023-03-15T09:35:20.137Z,2.67
2023-03-15T09:37:48.896Z,3.23
2023-03-15T09:40:31.848Z,3.47
2023-03-15T09:43:34.284Z,3.30
2023-03-15T09:46:14.835Z,3.57
2023-03-15T09:48:56.173Z,2.90
2023-03-15T09:51:35.376Z,3.80
2023-03-15T09:54:27.317Z,3.20
2023-03-15T09:57:02.344Z,2.97
2023-03-15T09:59:35.962Z,2.67
2023-03-15T10:02:15.158Z,2.90
2023-03-15T10:04:44.635Z,2.60
2023-03-15T10:07:14.497Z,3.00
2023-03-15T10:09:41.410Z,4.13
2023-03-15T10:12:41.375Z,3.20
2023-03-15T10:15:40.833Z,5.53
2023-03-15T10:18:16.486Z,3.97
2023-03-15T10:20:49.782Z,3.87
2023-03-15T10:23:26.625Z,3.57
2023-03-15T10:25:54.256Z,3.93
2023-03-15T10:28:30.606Z,3.60
2023-03-15T10:31:02.070Z,3.73
2023-03-15T10:33:32.544Z,3.67
2023-03-15T10:36:10.596Z,3.07
2023-03-15T10:38:39.076Z,2.80
2023-03-15T10:41:06.736Z,2.60
2023-03-15T10:43:37.030Z,2.73
2023-03-15T10:46:12.560Z,2.27
2023-03-15T10:48:51.486Z,2.37
2023-03-15T10:51:31.485Z,2.27
2023-03-15T10:54:13.350Z,2.60
2023-03-15T10:56:58.204Z,2.80
2023-03-15T10:59:27.445Z,2.57
2023-03-15T11:02:15.397Z,2.67
2023-03-15T11:04:43.758Z,2.90
2023-03-15T11:07:13.517Z,2.53
2023-03-15T11:09:42.717Z,2.60
2023-03-15T11:12:34.958Z,2.13
2023-03-15T11:15:13.992Z,2.90
2023-03-15T11:17:49.029Z,2.50
2023-03-15T11:20:30.499Z,2.70
2023-03-15T11:22:59.544Z,2.43
2023-03-15T11:25:31.730Z,2.40
2023-03-15T11:27:59.939Z,2.40
2023-03-15T11:30:29.862Z,2.47
2023-03-15T11:33:08.189Z,3.10
2023-03-15T11:35:49.545Z,2.83
2023-03-15T11:38:33.287Z,3.00
2023-03-15T11:41:02.447Z,2.50
2023-03-15T11:43:49.506Z,2.73
2023-03-15T11:46:34.547Z,2.60
2023-03-15T11:49:33.604Z,2.47
2023-03-15T11:52:00.952Z,3.00
2023-03-15T11:54:30.277Z,2.77
2023-03-15T11:57:27.566Z,3.00
2023-03-15T11:59:55.301Z,2.33
2023-03-15T12:02:26.354Z,2.50
2023-03-15T12:04:54.448Z,2.63
2023-03-15T12:07:23.870Z,2.17
2023-03-15T12:10:14.358Z,2.20
2023-03-15T12:12:46.683Z,2.30
2023-03-15T12:15:19.507Z,2.30
2023-03-15T12:17:57.876Z,2.70
2023-03-15T12:20:42.940Z,2.20
2023-03-15T12:23:18.893Z,2.30
2023-03-15T12:26:03.855Z,1.83
2023-03-15T12:28:38.923Z,2.00
2023-03-15T12:31:09.021Z,1.83
2023-03-15T12:33:50.616Z,2.03
2023-03-15T12:36:29.138Z,1.87
2023-03-15T12:39:02.442Z,2.20
2023-03-15T12:41:41.800Z,2.10
2023-03-15T12:44:38.396Z,2.20
2023-03-15T12:47:12.414Z,2.00
2023-03-15T12:49:44.727Z,2.47
2023-03-15T12:52:11.404Z,2.60
2023-03-15T12:54:49.361Z,2.50
2023-03-15T12:57:35.837Z,2.40
2023-03-15T13:00:23.102Z,2.70
2023-03-15T13:03:05.645Z,2.10
2023-03-15T13:05:40.326Z,2.30
2023-03-15T13:08:31.051Z,2.37
2023-03-15T13:11:35.600Z,2.77
2023-03-15T13:14:17.189Z,2.50
2023-03-15T13:16:53.223Z,2.10
2023-03-15T13:19:25.865Z,2.13
2023-03-15T13:22:19.836Z,2.17
2023-03-15T13:25:09.888Z,2.00
2023-03-15T13:27:56.640Z,2.10
2023-03-15T13:31:03.092Z,2.30
2023-03-15T13:33:34.012Z,2.20
2023-03-15T13:36:04.329Z,2.07
2023-03-15T13:38:35.500Z,2.37
2023-03-15T13:41:04.496Z,2.30
2023-03-15T13:43:34.280Z,2.47
2023-03-15T13:46:01.783Z,2.20
2023-03-15T13:48:34.689Z,2.30
2023-03-15T13:51:07.736Z,2.47
2023-03-15T13:53:49.099Z,3.00
2023-03-15T13:56:19.842Z,2.30
2023-03-15T13:58:48.555Z,2.47
2023-03-15T14:01:17.089Z,2.00
2023-03-15T14:03:48.868Z,2.23
2023-03-15T14:06:23.755Z,2.57
2023-03-15T14:08:54.725Z,2.23
2023-03-15T14:11:24.473Z,2.17
2023-03-15T14:13:59.644Z,2.30
2023-03-15T14:16:34.477Z,2.33
2023-03-15T14:19:22.725Z,2.07
2023-03-15T14:21:56.018Z,2.20
2023-03-15T14:24:35.764Z,2.13
2023-03-15T14:27:14.582Z,2.07
2023-03-15T14:29:47.222Z,2.17
2023-03-15T14:32:51.797Z,2.50
2023-03-15T14:35:36.926Z,2.67
2023-03-15T14:38:24.013Z,2.27
2023-03-15T14:40:52.557Z,2.20
2023-03-15T14:43:19.590Z,2.03
2023-03-15T14:45:48.044Z,2.50
2023-03-15T14:48:29.397Z,2.60
2023-03-15T14:50:56.570Z,2.80
2023-03-15T14:53:26.495Z,2.57
2023-03-15T14:55:53.235Z,2.70
2023-03-15T14:58:22.025Z,2.17
2023-03-15T15:00:51.634Z,2.20
2023-03-15T15:03:32.773Z,2.30
2023-03-15T15:06:01.565Z,2.17
2023-03-15T15:08:28.979Z,2.83
2023-03-15T15:10:57.025Z,2.77
2023-03-15T15:13:28.402Z,2.63
2023-03-15T15:15:57.004Z,2.53
2023-03-15T15:18:25.500Z,2.47
2023-03-15T15:20:55.615Z,2.43
2023-03-15T15:23:31.905Z,2.50
2023-03-15T15:26:01.859Z,3.00
2023-03-15T15:28:36.049Z,2.50
2023-03-15T15:31:07.665Z,3.57
2023-03-15T15:33:34.656Z,3.80
2023-03-15T15:36:02.123Z,3.57
2023-03-15T15:38:38.594Z,3.33
2023-03-15T15:41:15.648Z,2.90
2023-03-15T15:43:43.864Z,2.80
2023-03-15T15:46:12.415Z,2.63
2023-03-15T15:48:40.577Z,2.70
2023-03-15T15:51:28.372Z,2.57
2023-03-15T15:53:58.772Z,2.30
2023-03-15T15:56:40.056Z,2.20
2023-03-15T15:59:11.884Z,2.80
2023-03-15T16:01:49.292Z,2.20
2023-03-15T16:04:23.890Z,2.43
2023-03-15T16:07:02.668Z,2.57
2023-03-15T16:09:31.441Z,2.30
2023-03-15T16:11:58.487Z,2.60
2023-03-15T16:14:25.362Z,2.53
2023-03-15T16:16:52.176Z,2.67
2023-03-15T16:19:19.077Z,2.17
2023-03-15T16:21:49.034Z,2.50
2023-03-15T16:24:15.711Z,2.80
2023-03-15T16:26:45.256Z,2.67
2023-03-15T16:29:14.989Z,3.03
2023-03-15T16:31:41.984Z,2.80
2023-03-15T16:34:11.841Z,2.93
2023-03-15T16:36:43.482Z,3.80
2023-03-15T16:39:12.737Z,3.50
2023-03-15T16:41:40.513Z,3.77
2023-03-15T16:44:19.197Z,4.07
2023-03-15T16:46:46.650Z,3.87
2023-03-15T16:49:15.428Z,3.83
2023-03-15T16:51:47.693Z,3.73
2023-03-15T16:54:22.005Z,3.40
2023-03-15T16:56:54.836Z,3.83
2023-03-15T16:59:21.877Z,3.83
2023-03-15T17:01:51.438Z,3.87
2023-03-15T17:04:18.319Z,4.10
2023-03-15T17:06:46.145Z,4.57
2023-03-15T17:09:16.491Z,5.03
2023-03-15T17:11:46.420Z,5.20
2023-03-15T17:14:20.068Z,5.50
2023-03-15T17:16:46.789Z,5.30
2023-03-15T17:19:15.222Z,4.97
2023-03-15T17:21:44.111Z,4.90
2023-03-15T17:24:12.204Z,4.73
2023-03-15T17:26:41.177Z,4.80
2023-03-15T17:29:08.462Z,4.77
2023-03-15T17:31:36.029Z,5.10
2023-03-15T17:34:03.204Z,5.30
2023-03-15T17:36:35.112Z,4.87
2023-03-15T17:39:02.749Z,4.50
2023-03-15T17:41:32.131Z,4.00
2023-03-15T17:43:59.049Z,4.00
2023-03-15T17:46:31.185Z,4.13
2023-03-15T17:49:02.985Z,4.13
2023-03-15T17:51:35.308Z,4.20
2023-03-15T17:54:02.441Z,3.93
2023-03-15T17:56:29.686Z,4.20
2023-03-15T17:58:56.633Z,3.83
2023-03-15T18:01:27.479Z,4.03
2023-03-15T18:03:55.090Z,4.10
2023-03-15T18:06:22.972Z,4.37
2023-03-15T18:08:50.208Z,4.17
2023-03-15T18:11:35.900Z,4.50
2023-03-15T18:14:04.651Z,4.17
2023-03-15T18:16:32.190Z,4.80
2023-03-15T18:18:59.263Z,5.03
2023-03-15T18:21:27.477Z,5.13
2023-03-15T18:23:54.748Z,4.90
2023-03-15T18:26:21.939Z,5.60
2023-03-15T18:28:49.009Z,5.10
2023-03-15T18:31:22.580Z,6.07
2023-03-15T18:33:50.268Z,5.67
2023-03-15T18:36:18.043Z,5.33
2023-03-15T18:38:45.541Z,5.60
2023-03-15T18:41:24.780Z,5.70
2023-03-15T18:43:52.167Z,7.33
2023-03-15T18:46:21.350Z,7.80
2023-03-15T18:48:49.793Z,7.40
2023-03-15T18:51:17.365Z,7.03
2023-03-15T18:53:45.385Z,7.00
2023-03-15T18:56:23.881Z,6.13
2023-03-15T18:58:51.888Z,5.40
2023-03-15T19:01:22.351Z,5.40
2023-03-15T19:03:49.889Z,4.93
2023-03-15T19:06:16.855Z,5.70
2023-03-15T19:08:43.782Z,5.40
2023-03-15T19:11:11.331Z,5.27
2023-03-15T19:13:38.509Z,5.70
2023-03-15T19:16:05.666Z,6.43
2023-03-15T19:18:32.847Z,6.10
2023-03-15T19:20:59.973Z,5.30
2023-03-15T19:23:27.351Z,5.50
2023-03-15T19:25:54.727Z,6.73
2023-03-15T19:28:21.469Z,6.87
2023-03-15T19:30:49.316Z,7.10
2023-03-15T19:33:16.304Z,7.20
2023-03-15T19:35:43.109Z,6.83
2023-03-15T19:38:09.907Z,6.10
2023-03-15T19:40:37.397Z,6.27
2023-03-15T19:43:04.387Z,6.20
2023-03-15T19:45:31.101Z,6.13
2023-03-15T19:47:57.872Z,6.17
2023-03-15T19:50:24.620Z,6.30
2023-03-15T19:52:51.440Z,6.43
2023-03-15T19:55:20.170Z,6.07
2023-03-15T19:57:47.512Z,6.40
2023-03-15T20:00:16.096Z,6.33
2023-03-15T20:02:43.759Z,6.23
2023-03-15T20:05:12.258Z,6.47
2023-03-15T20:07:39.542Z,6.67
2023-03-15T20:10:08.530Z,5.90
2023-03-15T20:12:36.263Z,6.10
2023-03-15T20:15:04.598Z,6.57
2023-03-15T20:17:31.488Z,6.57
2023-03-15T20:19:58.310Z,6.33
2023-03-15T20:22:25.144Z,6.73
2023-03-15T20:24:51.947Z,6.60
2023-03-15T20:27:18.901Z,6.80
2023-03-15T20:29:45.692Z,6.87
2023-03-15T20:32:12.549Z,6.20
2023-03-15T20:34:41.449Z,7.37
2023-03-15T20:37:08.236Z,7.07
2023-03-15T20:39:35.019Z,7.17
2023-03-15T20:42:01.744Z,7.30
2023-03-15T20:44:28.531Z,6.83
2023-03-15T20:46:58.710Z,7.20
2023-03-15T20:49:26.986Z,6.83
2023-03-15T20:51:55.618Z,6.60
2023-03-15T20:54:22.338Z,6.43
2023-03-15T20:56:49.117Z,6.97
2023-03-15T20:59:15.915Z,7.03
2023-03-15T21:01:42.714Z,6.43
2023-03-15T21:04:11.210Z,6.30
2023-03-15T21:06:37.927Z,6.50
2023-03-15T21:09:05.195Z,6.80
2023-03-15T21:11:32.729Z,6.50
2023-03-15T21:13:59.458Z,6.67
2023-03-15T21:16:26.536Z,6.57
2023-03-15T21:18:54.770Z,6.43
2023-03-15T21:21:21.716Z,6.33
2023-03-15T21:23:48.490Z,6.67
2023-03-15T21:26:15.179Z,6.83
2023-03-15T21:28:42.059Z,6.30
2023-03-15T21:31:09.152Z,6.37
2023-03-15T21:33:36.163Z,6.90
2023-03-15T21:36:03.019Z,6.80
2023-03-15T21:38:31.731Z,8.37
2023-03-15T21:40:59.690Z,6.90
2023-03-15T21:43:31.859Z,7.07
2023-03-15T21:46:07.753Z,6.70
2023-03-15T21:48:34.962Z,6.63
2023-03-15T21:51:04.231Z,6.30
2023-03-15T21:53:33.969Z,6.30
2023-03-15T21:56:02.216Z,6.10
2023-03-15T21:58:29.426Z,6.43
2023-03-15T22:01:05.128Z,6.37
2023-03-15T22:03:33.359Z,6.60
2023-03-15T22:06:00.280Z,6.40
2023-03-15T22:08:27.378Z,6.20
2023-03-15T22:10:55.101Z,6.00
2023-03-15T22:13:22.230Z,6.37
2023-03-15T22:15:49.120Z,6.10
2023-03-15T22:18:16.140Z,6.30
2023-03-15T22:20:42.996Z,6.20
2023-03-15T22:23:09.821Z,5.67
2023-03-15T22:25:40.013Z,5.83
2023-03-15T22:28:07.261Z,6.27
2023-03-15T22:30:34.303Z,5.97
2023-03-15T22:33:01.434Z,5.73
2023-03-15T22:35:28.386Z,6.30
2023-03-15T22:37:56.875Z,5.97
2023-03-15T22:40:26.119Z,5.27
2023-03-15T22:42:53.086Z,5.57
2023-03-15T22:45:20.756Z,5.40
2023-03-15T22:47:49.073Z,5.33
2023-03-15T22:50:16.057Z,5.33
2023-03-15T22:52:43.361Z,5.60
2023-03-15T22:55:11.072Z,5.60
2023-03-15T22:57:38.010Z,5.37
2023-03-15T23:00:13.744Z,5.23
2023-03-15T23:02:41.846Z,5.67
2023-03-15T23:05:09.818Z,5.23
2023-03-15T23:07:36.681Z,5.30
2023-03-15T23:10:06.081Z,5.07
2023-03-15T23:12:36.356Z,5.10
2023-03-15T23:15:04.651Z,4.90
2023-03-15T23:17:32.008Z,5.10
2023-03-15T23:19:58.849Z,4.77
2023-03-15T23:22:25.656Z,5.07
2023-03-15T23:24:52.528Z,5.00
2023-03-15T23:27:19.297Z,4.63
2023-03-15T23:29:54.454Z,4.20
2023-03-15T23:32:22.932Z,4.77
2023-03-15T23:34:49.939Z,4.70
2023-03-15T23:37:17.070Z,4.80
2023-03-15T23:39:43.876Z,5.00
2023-03-15T23:42:11.314Z,4.33
2023-03-15T23:44:38.638Z,4.50
2023-03-15T23:47:06.476Z,4.27
2023-03-15T23:49:33.822Z,4.33
2023-03-15T23:52:05.827Z,4.23
2023-03-15T23:54:39.407Z,4.00
2023-03-15T23:57:07.691Z,4.13
2023-03-15T23:59:36.187Z,4.13
